createdAt,value
2019-05-13T00:00:44.414Z,1.98
2019-05-13T00:03:13.598Z,2.17
2019-05-13T00:05:41.610Z,2.00
2019-05-13T00:08:10.761Z,1.90
2019-05-13T00:10:40.472Z,2.00
2019-05-13T00:13:08.667Z,1.92
2019-05-13T00:15:36.899Z,2.15
2019-05-13T00:18:04.995Z,2.07
2019-05-13T00:20:33.839Z,1.85
2019-05-13T00:23:03.988Z,2.17
2019-05-13T00:25:33.832Z,2.30
2019-05-13T00:28:04.153Z,1.92
2019-05-13T00:30:34.047Z,2.10
2019-05-13T00:33:03.849Z,2.00
2019-05-13T00:35:33.932Z,2.00
2019-05-13T00:38:03.968Z,2.00
2019-05-13T00:40:33.743Z,2.33
2019-05-13T00:43:03.525Z,2.20
2019-05-13T00:45:33.596Z,2.20
2019-05-13T00:48:01.222Z,1.90
2019-05-13T00:50:29.296Z,2.00
2019-05-13T00:52:58.063Z,2.40
2019-05-13T00:55:26.200Z,2.60
2019-05-13T00:57:54.376Z,2.27
2019-05-13T01:00:24.357Z,2.42
2019-05-13T01:02:53.339Z,2.37
2019-05-13T01:05:23.413Z,2.30
2019-05-13T01:07:53.557Z,2.12
2019-05-13T01:10:21.128Z,2.20
2019-05-13T01:12:49.236Z,2.45
2019-05-13T01:15:17.399Z,2.08
2019-05-13T01:17:45.578Z,2.30
2019-05-13T01:20:14.552Z,1.98
2019-05-13T01:22:44.100Z,2.40
2019-05-13T01:25:14.539Z,2.33
2019-05-13T01:27:44.148Z,2.40
2019-05-13T01:30:13.366Z,2.35
2019-05-13T01:32:44.495Z,1.97
2019-05-13T01:35:11.865Z,2.15
2019-05-13T01:37:43.414Z,2.30
2019-05-13T01:40:13.422Z,2.40
2019-05-13T01:42:41.075Z,2.30
2019-05-13T01:45:09.599Z,2.50
2019-05-13T01:47:37.709Z,2.40
2019-05-13T01:50:08.697Z,2.10
2019-05-13T01:52:36.844Z,2.50
2019-05-13T01:55:06.234Z,2.33
2019-05-13T01:57:34.423Z,2.50
2019-05-13T02:00:04.683Z,2.05
2019-05-13T02:02:34.068Z,2.08
2019-05-13T02:05:03.964Z,2.08
2019-05-13T02:07:33.585Z,2.00
2019-05-13T02:10:04.370Z,2.02
2019-05-13T02:12:33.989Z,2.13
2019-05-13T02:15:04.394Z,2.20
2019-05-13T02:17:33.759Z,2.00
2019-05-13T02:20:03.899Z,2.20
2019-05-13T02:22:33.668Z,2.02
2019-05-13T02:25:04.433Z,2.50
2019-05-13T02:27:32.016Z,2.10
2019-05-13T02:30:00.112Z,2.30
2019-05-13T02:32:28.234Z,2.55
2019-05-13T02:34:56.370Z,2.20
2019-05-13T02:37:26.934Z,2.58
2019-05-13T02:39:54.271Z,2.50
2019-05-13T02:42:22.981Z,2.27
2019-05-13T02:44:52.964Z,2.47
2019-05-13T02:47:22.567Z,2.30
2019-05-13T02:49:53.400Z,1.95
2019-05-13T02:52:22.415Z,1.92
2019-05-13T02:54:52.764Z,2.27
2019-05-13T02:57:23.354Z,2.35
2019-05-13T02:59:52.624Z,2.30
2019-05-13T03:02:22.370Z,2.27
2019-05-13T03:04:52.346Z,2.27
2019-05-13T03:07:23.022Z,2.30
2019-05-13T03:09:52.511Z,2.20
2019-05-13T03:12:19.100Z,2.25
2019-05-13T03:14:48.567Z,2.02
2019-05-13T03:17:27.773Z,2.42
2019-05-13T03:19:55.984Z,2.20
2019-05-13T03:22:24.203Z,2.10
2019-05-13T03:24:52.622Z,2.22
2019-05-13T03:27:24.944Z,2.08
2019-05-13T03:29:53.331Z,2.30
2019-05-13T03:32:26.006Z,1.90
2019-05-13T03:34:54.876Z,2.50
2019-05-13T03:37:25.403Z,2.40
2019-05-13T03:39:52.315Z,2.40
2019-05-13T03:42:22.485Z,2.12
2019-05-13T03:44:52.642Z,2.10
2019-05-13T03:47:23.245Z,2.22
2019-05-13T03:49:53.316Z,2.60
2019-05-13T03:52:22.509Z,2.37
2019-05-13T03:54:52.035Z,2.65
2019-05-13T03:57:23.260Z,2.33
2019-05-13T03:59:52.546Z,2.42
2019-05-13T04:02:22.668Z,2.30
2019-05-13T04:04:52.849Z,2.50
2019-05-13T04:07:23.527Z,3.45
2019-05-13T04:09:52.349Z,2.60
2019-05-13T04:12:22.580Z,2.90
2019-05-13T04:14:52.654Z,2.65
2019-05-13T04:17:19.349Z,2.58
2019-05-13T04:19:47.471Z,2.55
2019-05-13T04:22:15.655Z,2.50
2019-05-13T04:24:43.812Z,2.60
2019-05-13T04:27:13.287Z,2.47
2019-05-13T04:29:43.208Z,2.47
2019-05-13T04:32:12.848Z,2.33
2019-05-13T04:34:42.416Z,2.52
2019-05-13T04:37:13.253Z,2.80
2019-05-13T04:39:49.971Z,2.72
2019-05-13T04:42:12.405Z,3.25
2019-05-13T04:44:42.794Z,3.10
2019-05-13T04:47:12.801Z,2.92
2019-05-13T04:49:42.828Z,3.00
2019-05-13T04:52:13.406Z,3.05
2019-05-13T04:54:43.661Z,2.95
2019-05-13T04:57:12.355Z,3.27
2019-05-13T04:59:44.545Z,3.15
2019-05-13T05:02:16.413Z,3.33
2019-05-13T05:05:02.973Z,3.10
2019-05-13T05:07:52.326Z,3.22
2019-05-13T05:10:38.873Z,3.80
2019-05-13T05:13:12.633Z,4.37
2019-05-13T05:15:44.233Z,3.77
2019-05-13T05:18:23.050Z,4.37
2019-05-13T05:20:52.691Z,4.00
2019-05-13T05:23:22.311Z,3.80
2019-05-13T05:25:54.637Z,3.45
2019-05-13T05:28:24.264Z,3.37
2019-05-13T05:30:53.974Z,3.52
2019-05-13T05:33:35.915Z,3.30
2019-05-13T05:36:14.475Z,3.42
2019-05-13T05:38:56.461Z,2.83
2019-05-13T05:41:26.106Z,2.80
2019-05-13T05:43:55.817Z,3.12
2019-05-13T05:46:24.663Z,2.70
2019-05-13T05:48:53.568Z,2.50
2019-05-13T05:51:22.232Z,2.55
2019-05-13T05:53:51.754Z,2.30
2019-05-13T05:56:22.015Z,2.70
2019-05-13T05:58:52.343Z,2.17
2019-05-13T06:01:23.314Z,2.50
2019-05-13T06:03:52.978Z,2.65
2019-05-13T06:06:22.749Z,2.37
2019-05-13T06:08:51.707Z,2.45
2019-05-13T06:11:22.144Z,2.62
2019-05-13T06:13:54.441Z,2.60
2019-05-13T06:16:22.336Z,2.60
2019-05-13T06:18:52.278Z,2.72
2019-05-13T06:21:21.462Z,2.20
2019-05-13T06:23:51.823Z,2.50
2019-05-13T06:26:23.379Z,2.37
2019-05-13T06:28:51.989Z,2.00
2019-05-13T06:31:21.537Z,2.20
2019-05-13T06:33:51.457Z,2.42
2019-05-13T06:36:21.944Z,2.50
2019-05-13T06:38:51.361Z,2.33
2019-05-13T06:41:19.094Z,2.15
2019-05-13T06:43:47.222Z,2.30
2019-05-13T06:46:15.427Z,2.10
2019-05-13T06:48:44.368Z,2.07
2019-05-13T06:51:12.454Z,2.20
2019-05-13T06:53:41.462Z,1.90
2019-05-13T06:56:11.970Z,1.82
2019-05-13T06:58:41.523Z,2.08
2019-05-13T07:01:11.565Z,2.00
2019-05-13T07:03:41.839Z,2.00
2019-05-13T07:06:09.154Z,1.50
2019-05-13T07:08:37.248Z,1.72
2019-05-13T07:11:17.719Z,1.52
2019-05-13T07:13:35.283Z,1.40
2019-05-13T07:16:03.383Z,1.35
2019-05-13T07:18:32.316Z,1.30
2019-05-13T07:21:02.241Z,1.12
2019-05-13T07:23:31.825Z,1.40
2019-05-13T07:26:01.674Z,1.12
2019-05-13T07:28:32.261Z,1.17
2019-05-13T07:31:02.139Z,1.10
2019-05-13T07:33:32.020Z,1.05
2019-05-13T07:36:02.771Z,0.88
2019-05-13T07:38:32.226Z,0.90
2019-05-13T07:41:04.464Z,0.93
2019-05-13T07:43:32.661Z,0.85
2019-05-13T07:46:02.120Z,0.95
2019-05-13T07:48:32.057Z,1.30
2019-05-13T07:51:04.018Z,0.90
2019-05-13T07:53:32.197Z,0.80
2019-05-13T07:56:01.960Z,1.27
2019-05-13T07:58:34.380Z,1.10
2019-05-13T08:01:02.386Z,1.10
2019-05-13T08:03:31.713Z,1.10
2019-05-13T08:06:01.992Z,1.10
2019-05-13T08:08:32.189Z,1.00
2019-05-13T08:11:01.235Z,1.17
2019-05-13T08:13:31.480Z,1.20
2019-05-13T08:16:01.994Z,1.02
2019-05-13T08:18:32.050Z,1.10
2019-05-13T08:21:02.106Z,1.07
2019-05-13T08:23:32.391Z,1.30
2019-05-13T08:26:02.220Z,1.30
2019-05-13T08:28:32.258Z,1.27
2019-05-13T08:31:02.017Z,1.25
2019-05-13T08:33:32.079Z,0.90
2019-05-13T08:36:01.690Z,1.17
2019-05-13T08:38:31.876Z,0.90
2019-05-13T08:41:01.910Z,1.00
2019-05-13T08:43:31.669Z,1.25
2019-05-13T08:46:02.008Z,1.20
2019-05-13T08:48:32.365Z,1.10
2019-05-13T08:51:02.729Z,1.17
2019-05-13T08:53:31.630Z,0.95
2019-05-13T08:56:01.675Z,1.20
2019-05-13T08:58:32.060Z,1.30
2019-05-13T09:01:02.246Z,1.27
2019-05-13T09:03:32.568Z,1.20
2019-05-13T09:06:02.646Z,1.20
2019-05-13T09:08:32.363Z,1.13
2019-05-13T09:11:01.603Z,1.05
2019-05-13T09:13:29.979Z,1.37
2019-05-13T09:15:58.048Z,1.15
2019-05-13T09:18:26.161Z,1.52
2019-05-13T09:20:54.312Z,1.40
2019-05-13T09:23:22.545Z,1.27
2019-05-13T09:25:52.194Z,1.13
2019-05-13T09:28:21.800Z,1.10
2019-05-13T09:30:52.744Z,1.30
2019-05-13T09:33:21.927Z,1.15
2019-05-13T09:35:52.621Z,1.25
2019-05-13T09:38:22.144Z,1.60
2019-05-13T09:40:49.551Z,1.60
2019-05-13T09:43:17.703Z,1.60
2019-05-13T09:45:46.854Z,1.25
2019-05-13T09:48:15.037Z,1.40
2019-05-13T09:50:43.118Z,1.40
2019-05-13T09:53:11.600Z,1.22
2019-05-13T09:55:41.550Z,1.10
2019-05-13T09:58:11.866Z,1.10
2019-05-13T10:00:42.047Z,1.05
2019-05-13T10:03:09.485Z,1.30
2019-05-13T10:05:37.607Z,1.30
2019-05-13T10:08:06.314Z,1.50
2019-05-13T10:10:34.536Z,1.80
2019-05-13T10:13:12.358Z,1.40
2019-05-13T10:15:34.399Z,1.60
2019-05-13T10:18:02.516Z,1.52
2019-05-13T10:20:42.069Z,1.87
2019-05-13T10:23:12.570Z,1.57
2019-05-13T10:25:43.054Z,1.52
2019-05-13T10:28:13.270Z,1.60
2019-05-13T10:30:43.772Z,1.60
2019-05-13T10:33:12.393Z,1.67
2019-05-13T10:35:42.913Z,1.87
2019-05-13T10:38:13.391Z,1.80
2019-05-13T10:40:43.316Z,1.62
2019-05-13T10:43:27.086Z,1.80
2019-05-13T10:45:41.768Z,1.90
2019-05-13T10:48:11.187Z,1.60
2019-05-13T10:50:41.885Z,1.40
2019-05-13T10:53:12.251Z,1.52
2019-05-13T10:55:39.432Z,1.60
2019-05-13T10:58:07.606Z,1.40
2019-05-13T11:00:37.322Z,1.75
2019-05-13T11:03:05.453Z,1.52
2019-05-13T11:05:33.969Z,1.87
2019-05-13T11:08:02.256Z,1.60
2019-05-13T11:10:32.560Z,1.37
2019-05-13T11:13:01.924Z,1.47
2019-05-13T11:15:32.801Z,1.45
2019-05-13T11:18:02.857Z,1.35
2019-05-13T11:20:32.247Z,1.57
2019-05-13T11:22:59.548Z,1.30
2019-05-13T11:25:27.718Z,1.35
2019-05-13T11:27:58.499Z,1.50
2019-05-13T11:30:25.989Z,1.40
2019-05-13T11:32:54.098Z,1.30
2019-05-13T11:35:22.962Z,1.37
2019-05-13T11:37:52.197Z,1.40
2019-05-13T11:40:22.494Z,1.50
2019-05-13T11:42:52.658Z,1.40
2019-05-13T11:45:22.328Z,1.10
2019-05-13T11:47:52.225Z,1.27
2019-05-13T11:50:22.351Z,1.10
2019-05-13T11:52:52.518Z,1.52
2019-05-13T11:55:22.993Z,1.45
2019-05-13T11:57:52.385Z,1.45
2019-05-13T12:00:21.030Z,1.35
2019-05-13T12:02:54.359Z,1.27
2019-05-13T12:05:22.579Z,1.70
2019-05-13T12:07:53.314Z,1.60
2019-05-13T12:10:19.394Z,1.50
2019-05-13T12:12:47.575Z,1.40
2019-05-13T12:15:28.089Z,1.60
2019-05-13T12:17:45.599Z,1.50
2019-05-13T12:20:13.899Z,1.40
2019-05-13T12:22:42.761Z,1.30
2019-05-13T12:25:13.767Z,1.60
2019-05-13T12:27:42.450Z,1.50
2019-05-13T12:30:12.490Z,1.45
2019-05-13T12:32:43.701Z,1.55
2019-05-13T12:35:13.370Z,1.70
2019-05-13T12:37:42.123Z,1.40
2019-05-13T12:40:10.628Z,1.43
2019-05-13T12:42:44.309Z,1.30
2019-05-13T12:45:10.966Z,1.77
2019-05-13T12:47:42.661Z,1.30
2019-05-13T12:50:12.781Z,1.30
2019-05-13T12:52:43.224Z,1.52
2019-05-13T12:55:13.756Z,1.30
2019-05-13T12:57:39.660Z,1.20
2019-05-13T13:00:08.135Z,1.13
2019-05-13T13:02:36.328Z,1.10
2019-05-13T13:05:19.732Z,1.15
2019-05-13T13:07:41.216Z,1.20
2019-05-13T13:10:07.153Z,1.40
2019-05-13T13:12:36.415Z,1.13
2019-05-13T13:15:32.012Z,1.10
2019-05-13T13:17:36.112Z,1.45
2019-05-13T13:22:35.716Z,1.00
2019-05-13T13:25:05.244Z,0.90
2019-05-13T13:27:59.911Z,1.05
2019-05-13T13:30:08.553Z,2.05
2019-05-13T13:32:34.654Z,1.60
2019-05-13T13:35:03.893Z,1.07
2019-05-13T13:37:34.971Z,1.10
2019-05-13T13:40:03.428Z,1.00
2019-05-13T13:42:32.934Z,1.30
2019-05-13T13:45:06.025Z,1.00
2019-05-13T13:47:33.233Z,0.90
2019-05-13T13:50:01.365Z,0.80
2019-05-13T13:52:33.203Z,0.82
2019-05-13T13:55:04.510Z,1.10
2019-05-13T13:57:32.407Z,0.90
2019-05-13T14:02:36.560Z,1.27
2019-05-13T14:05:04.932Z,0.98
2019-05-13T14:07:09.337Z,1.20
2019-05-13T14:07:35.922Z,0.80
2019-05-13T14:10:04.168Z,0.80
2019-05-13T14:12:29.516Z,1.03
2019-05-13T14:14:57.680Z,0.93
2019-05-13T14:17:25.862Z,0.90
2019-05-13T14:19:54.079Z,1.07
2019-05-13T14:22:22.300Z,1.10
2019-05-13T14:24:51.807Z,0.75
2019-05-13T14:27:22.255Z,0.90
2019-05-13T14:29:52.511Z,0.80
2019-05-13T14:32:22.286Z,0.80
2019-05-13T14:34:52.784Z,0.70
2019-05-13T14:37:22.314Z,0.70
2019-05-13T14:39:50.367Z,0.98
2019-05-13T14:42:19.450Z,1.20
2019-05-13T14:44:48.561Z,1.00
2019-05-13T14:47:17.284Z,1.27
2019-05-13T14:49:45.410Z,0.80
2019-05-13T14:52:13.649Z,1.00
2019-05-13T14:54:42.138Z,1.07
2019-05-13T14:57:12.614Z,1.00
2019-05-13T14:59:41.463Z,0.90
2019-05-13T15:02:11.917Z,0.90
2019-05-13T15:04:41.843Z,1.10
2019-05-13T15:07:12.075Z,0.90
2019-05-13T15:09:42.095Z,0.93
2019-05-13T15:12:09.765Z,1.30
2019-05-13T15:14:39.998Z,1.40
2019-05-13T15:17:07.938Z,1.00
2019-05-13T15:19:36.032Z,0.90
2019-05-13T15:22:04.483Z,1.30
2019-05-13T15:24:32.693Z,1.20
2019-05-13T15:27:00.935Z,1.00
2019-05-13T15:29:31.401Z,0.98
2019-05-13T15:32:02.070Z,1.02
2019-05-13T15:34:31.811Z,1.00
2019-05-13T15:37:01.989Z,1.10
2019-05-13T15:39:31.596Z,0.80
2019-05-13T15:42:01.983Z,0.90
2019-05-13T15:44:32.426Z,0.90
2019-05-13T15:47:03.852Z,1.00
2019-05-13T15:49:29.346Z,0.75
2019-05-13T15:51:58.204Z,0.90
2019-05-13T15:54:26.308Z,1.02
2019-05-13T15:56:54.565Z,1.00
2019-05-13T15:59:22.646Z,0.90
2019-05-13T16:01:52.485Z,0.70
2019-05-13T16:04:21.391Z,0.78
2019-05-13T16:06:52.124Z,0.80
2019-05-13T16:09:20.467Z,0.72
2019-05-13T16:11:48.702Z,0.80
2019-05-13T16:14:16.788Z,0.80
2019-05-13T16:16:44.887Z,0.70
2019-05-13T16:19:13.094Z,1.00
2019-05-13T16:21:42.701Z,0.70
2019-05-13T16:24:11.924Z,0.50
2019-05-13T16:26:42.742Z,0.50
2019-05-13T16:29:12.669Z,0.55
2019-05-13T16:31:41.705Z,0.80
2019-05-13T16:34:10.044Z,0.93
2019-05-13T16:36:42.798Z,0.75
2019-05-13T16:39:12.110Z,0.70
2019-05-13T16:41:39.484Z,0.85
2019-05-13T16:44:07.598Z,0.72
2019-05-13T16:46:35.746Z,0.70
2019-05-13T16:49:03.934Z,0.70
2019-05-13T16:51:32.057Z,0.70
2019-05-13T16:54:00.184Z,0.72
2019-05-13T16:56:32.110Z,0.60
2019-05-13T16:58:58.212Z,0.80
2019-05-13T17:01:26.365Z,0.67
2019-05-13T17:03:54.576Z,0.70
2019-05-13T17:06:22.771Z,0.80
2019-05-13T17:08:51.642Z,0.85
2019-05-13T17:11:19.941Z,0.90
2019-05-13T17:13:48.129Z,0.80
2019-05-13T17:16:16.225Z,0.65
2019-05-13T17:18:44.485Z,0.65
2019-05-13T17:21:12.574Z,0.65
2019-05-13T17:23:42.024Z,0.88
2019-05-13T17:26:11.587Z,0.65
2019-05-13T17:28:41.737Z,0.60
2019-05-13T17:31:11.544Z,1.00
2019-05-13T17:33:40.025Z,0.80
2019-05-13T17:36:08.276Z,0.90
2019-05-13T17:38:36.472Z,0.90
2019-05-13T17:41:04.724Z,0.80
2019-05-13T17:43:32.928Z,0.95
2019-05-13T17:46:01.440Z,0.88
2019-05-13T17:48:32.524Z,0.90
2019-05-13T17:51:01.330Z,1.03
2019-05-13T17:53:32.394Z,1.00
2019-05-13T17:56:02.156Z,0.80
2019-05-13T17:58:32.366Z,0.88
2019-05-13T18:01:01.926Z,1.40
2019-05-13T18:03:32.111Z,0.90
2019-05-13T18:06:02.496Z,1.00
2019-05-13T19:50:52.835Z,1.90
2019-05-13T19:53:22.101Z,1.60
2019-05-13T19:55:51.956Z,2.02
2019-05-13T19:58:21.642Z,1.80
2019-05-13T20:00:51.590Z,1.80
2019-05-13T20:03:22.565Z,1.90
2019-05-13T20:05:52.990Z,1.80
2019-05-13T20:08:21.266Z,1.90
2019-05-13T20:10:51.336Z,1.80
2019-05-13T20:13:21.649Z,1.90
2019-05-13T20:15:49.192Z,1.50
2019-05-13T20:18:17.399Z,1.60
2019-05-13T20:20:47.141Z,1.60
2019-05-13T20:23:15.397Z,1.62
2019-05-13T20:25:43.618Z,1.67
2019-05-13T20:28:11.918Z,1.42
2019-05-13T20:30:41.841Z,1.62
2019-05-13T20:33:11.957Z,1.60
2019-05-13T20:35:42.093Z,1.60
2019-05-13T20:38:11.566Z,1.72
2019-05-13T20:40:41.449Z,1.92
2019-05-13T20:43:11.855Z,2.10
2019-05-13T20:45:41.949Z,2.20
2019-05-13T20:48:11.771Z,2.10
2019-05-13T20:50:41.252Z,2.10
2019-05-13T20:53:11.370Z,2.22
2019-05-13T20:55:41.500Z,2.00
2019-05-13T20:58:09.085Z,2.22
2019-05-13T21:00:37.237Z,2.08
2019-05-13T21:03:05.394Z,2.20
2019-05-13T21:05:34.326Z,2.15
2019-05-13T21:08:02.572Z,2.20
2019-05-13T21:10:31.492Z,2.22
2019-05-13T21:13:01.750Z,2.50
2019-05-13T21:15:31.743Z,2.60
2019-05-13T21:18:01.941Z,2.72
2019-05-13T21:20:31.945Z,2.30
2019-05-13T21:23:02.111Z,2.42
2019-05-13T21:25:31.108Z,2.58
2019-05-13T21:27:59.454Z,2.33
2019-05-13T21:30:27.608Z,2.55
2019-05-13T21:32:55.888Z,2.50
2019-05-13T21:35:24.108Z,2.33
2019-05-13T21:37:52.298Z,2.50
2019-05-13T21:40:21.693Z,2.47
2019-05-13T21:42:52.437Z,2.62
2019-05-13T21:45:20.058Z,2.45
2019-05-13T21:47:48.240Z,2.55
2019-05-13T21:50:29.520Z,2.20
2019-05-13T21:52:46.490Z,2.40
2019-05-13T21:55:14.694Z,2.20
2019-05-13T21:57:42.915Z,2.40
2019-05-13T22:00:16.323Z,2.33
2019-05-13T22:02:46.121Z,2.75
2019-05-13T22:05:14.498Z,2.75
2019-05-13T22:07:42.775Z,2.50
2019-05-13T22:10:10.925Z,2.30
2019-05-13T22:12:41.277Z,2.67
2019-05-13T22:15:09.153Z,2.50
2019-05-13T22:17:37.369Z,2.20
2019-05-13T22:20:06.519Z,2.00
2019-05-13T22:22:34.704Z,1.90
2019-05-13T22:25:03.320Z,2.10
2019-05-13T22:27:31.899Z,2.47
2019-05-13T22:30:01.432Z,2.37
2019-05-13T22:32:29.711Z,2.50
2019-05-13T22:34:58.706Z,2.57
2019-05-13T22:37:26.983Z,2.55
2019-05-13T22:39:55.249Z,2.25
2019-05-13T22:42:23.422Z,2.50
2019-05-13T22:44:52.234Z,2.37
2019-05-13T22:47:21.980Z,2.47
2019-05-13T22:49:50.294Z,2.12
2019-05-13T22:52:18.502Z,1.77
2019-05-13T22:54:46.627Z,1.82
2019-05-13T22:57:14.786Z,1.72
2019-05-13T22:59:43.087Z,1.80
2019-05-13T23:02:11.303Z,1.55
2019-05-13T23:04:41.698Z,1.67
2019-05-13T23:07:11.604Z,1.77
2019-05-13T23:09:41.382Z,1.80
2019-05-13T23:12:09.112Z,1.80
2019-05-13T23:14:37.277Z,1.70
2019-05-13T23:17:05.505Z,1.55
2019-05-13T23:19:33.707Z,1.40
2019-05-13T23:22:02.462Z,1.67
2019-05-13T23:24:31.156Z,1.70
2019-05-13T23:27:01.912Z,1.60
2019-05-13T23:29:31.910Z,1.65
2019-05-13T23:32:01.453Z,1.70
2019-05-13T23:34:31.773Z,1.57
2019-05-13T23:37:07.833Z,1.45
2019-05-13T23:39:42.384Z,1.50
2019-05-13T23:42:12.243Z,1.40
2019-05-13T23:44:41.403Z,1.50
2019-05-13T23:47:11.517Z,1.55
2019-05-13T23:49:41.863Z,1.77
2019-05-13T23:52:11.659Z,1.50
2019-05-13T23:54:42.177Z,1.32
2019-05-13T23:57:11.712Z,1.50
2019-05-13T23:59:42.048Z,1.53
